Etusivu
METAR-TAF:

METAR-TAF

Lentoasemat :

Kuningas Abdilazizin kansainvälinen lentoasema

Jedda, Saudi-Arabia

Leveyspiiri: 21-42N, Pituuspiiri: 039-11E, korkeus merenpinnasta: 15 m

Tämänhetkinen sää

Tämä raportti tehtiin 12 minuuttia sitten, kello 17.00 UTC
Tuuli 7 kn lännestä/luoteesta
Lämpötila 31°C
Kosteus 55%
Ilmanpaine 1007 hPa
Näkyvyys 10 km tai enemmän
ei pilviä alle 1500 m:ssä eikä cumulonimbus-pilviä

METAR: OEJN 191700Z 30007KT CAVOK 31/21 Q1007 NOSIG

Aika: 20:12 (17:12 UTC)

Sääennuste

Tämä raportti tehtiin 6 tuntia ja 12 minuuttia sitten, kello 11.00 UTC
Ennuste voimassa 19. päivästä klo 12 UTC - 20. päivään klo 18 UTC
Tuuli 14 kn pohjoisen/luoteesta
Näkyvyys 10 km tai enemmän
ei pilviä alle 1500 m:ssä eikä cumulonimbus-pilviä
Tulossa
19. päivästä klo 18 UTC - 19. päivään klo 20 UTC
Tuuli 8 kn koillisesta

TAF: OEJN 191100Z 1912/2018 33014KT CAVOK BECMG 1918/1920 05008KT

Säähavainnot ja -ennusteet yli 4000 lentoasemalta (METAR- ja TAF-raportit).

Käytössä olevat sääasemat on merkitty karttaan keltaisilla ja punaisilla pisteillä.

Aseta hiiri pisteen päälle nähdäksesi sääaseman nimen.

Klikkaa sitten nähdäksesi säähavainnot ja -ennusteet.

Kartan vaihtaminen: klikkaa mustalla rastilla varustettuja vihreitä pisteitä, niin voit zoomata sisään; viivalla varustettua vihreää pistettä, niin voit zoomata ulos tai vihreitä nuolia, niin pääset viereisille kartoille.


METAR-TAF: